sensor_id;sensor_type;location;lat;lon;timestamp;pressure;altitude;pressure_sealevel;temperature;humidity
62011;BME280;47967;51.756;10.174;2023-02-28T05:03:47;101149.81;;;-0.13;62.36
62011;BME280;47967;51.756;10.174;2023-02-28T05:07:49;101155.31;;;-0.17;62.90
62011;BME280;47967;51.756;10.174;2023-02-28T05:11:52;101158.91;;;-0.18;63.04
62011;BME280;47967;51.756;10.174;2023-02-28T05:15:54;101147.63;;;-0.21;63.80
62011;BME280;47967;51.756;10.174;2023-02-28T05:19:58;101160.44;;;-0.13;64.47
62011;BME280;47967;51.756;10.174;2023-02-28T05:24:15;101151.72;;;-0.30;64.49
62011;BME280;47967;51.756;10.174;2023-02-28T05:28:24;101152.47;;;-0.42;65.09
62011;BME280;47967;51.756;10.174;2023-02-28T05:32:27;101158.88;;;-0.46;65.25
62011;BME280;47967;51.756;10.174;2023-02-28T05:36:31;101159.47;;;-0.41;64.80
62011;BME280;47967;51.756;10.174;2023-02-28T05:40:34;101168.28;;;-0.41;64.43
62011;BME280;47967;51.756;10.174;2023-02-28T05:44:37;101177.66;;;-0.35;63.45
62011;BME280;47967;51.756;10.174;2023-02-28T05:48:41;101174.72;;;-0.45;63.47
62011;BME280;47967;51.756;10.174;2023-02-28T05:52:49;101176.69;;;-0.63;63.78
62011;BME280;47967;51.756;10.174;2023-02-28T05:56:51;101176.03;;;-0.67;63.94
62011;BME280;47967;51.756;10.174;2023-02-28T06:00:54;101174.94;;;-0.78;64.64
62011;BME280;47967;51.756;10.174;2023-02-28T06:04:57;101176.28;;;-0.71;64.36
62011;BME280;47967;51.756;10.174;2023-02-28T06:09:00;101181.44;;;-0.68;64.69
62011;BME280;47967;51.756;10.174;2023-02-28T06:13:04;101178.94;;;-0.71;64.52
62011;BME280;47967;51.756;10.174;2023-02-28T06:17:08;101182.47;;;-0.71;65.12
62011;BME280;47967;51.756;10.174;2023-02-28T06:21:11;101187.25;;;-0.77;65.04
62011;BME280;47967;51.756;10.174;2023-02-28T06:25:16;101179.50;;;-0.81;65.28
62011;BME280;47967;51.756;10.174;2023-02-28T06:29:19;101189.13;;;-0.79;65.93
62011;BME280;47967;51.756;10.174;2023-02-28T06:33:22;101191.88;;;-0.81;66.72
62011;BME280;47967;51.756;10.174;2023-02-28T06:37:24;101201.28;;;-0.75;66.67
62011;BME280;47967;51.756;10.174;2023-02-28T06:41:29;101201.38;;;-0.62;67.10
62011;BME280;47967;51.756;10.174;2023-02-28T06:45:54;101212.69;;;-0.44;66.63
62011;BME280;47967;51.756;10.174;2023-02-28T06:49:57;101208.53;;;-0.34;66.16
62011;BME280;47967;51.756;10.174;2023-02-28T06:53:59;101205.88;;;-0.20;65.71
62011;BME280;47967;51.756;10.174;2023-02-28T06:58:03;101201.06;;;-0.13;65.19
62011;BME280;47967;51.756;10.174;2023-02-28T07:02:16;101216.59;;;-0.07;65.04
62011;BME280;47967;51.756;10.174;2023-02-28T07:06:18;101209.84;;;-0.12;64.97
62011;BME280;47967;51.756;10.174;2023-02-28T07:10:21;101221.13;;;-0.09;65.35
62011;BME280;47967;51.756;10.174;2023-02-28T07:14:25;101222.56;;;-0.03;65.44
62011;BME280;47967;51.756;10.174;2023-02-28T07:18:27;101220.84;;;0.10;64.91
62011;BME280;47967;51.756;10.174;2023-02-28T07:22:30;101217.97;;;0.13;64.76
62011;BME280;47967;51.756;10.174;2023-02-28T07:26:33;101223.47;;;0.39;64.85
62011;BME280;47967;51.756;10.174;2023-02-28T07:30:37;101223.78;;;0.62;64.57
62011;BME280;47967;51.756;10.174;2023-02-28T07:34:40;101223.16;;;0.86;64.08
62011;BME280;47967;51.756;10.174;2023-02-28T07:38:44;101224.75;;;1.01;63.48
62011;BME280;47967;51.756;10.174;2023-02-28T07:42:49;101228.84;;;1.07;63.39
62011;BME280;47967;51.756;10.174;2023-02-28T07:46:52;101222.94;;;1.29;63.37
62011;BME280;47967;51.756;10.174;2023-02-28T07:50:55;101221.34;;;1.52;62.66
62011;BME280;47967;51.756;10.174;2023-02-28T07:54:58;101237.00;;;1.57;63.00
62011;BME280;47967;51.756;10.174;2023-02-28T07:59:01;101235.75;;;1.63;62.59
62011;BME280;47967;51.756;10.174;2023-02-28T08:03:05;101233.31;;;1.72;62.26
62011;BME280;47967;51.756;10.174;2023-02-28T08:07:07;101226.03;;;1.74;62.16
62011;BME280;47967;51.756;10.174;2023-02-28T08:11:10;101224.47;;;1.85;62.65
62011;BME280;47967;51.756;10.174;2023-02-28T08:15:13;101224.97;;;2.03;62.65
62011;BME280;47967;51.756;10.174;2023-02-28T08:19:17;101215.88;;;2.31;61.71
62011;BME280;47967;51.756;10.174;2023-02-28T08:23:20;101213.53;;;2.64;60.55
62011;BME280;47967;51.756;10.174;2023-02-28T08:27:22;101209.06;;;2.64;59.08
62011;BME280;47967;51.756;10.174;2023-02-28T08:31:25;101217.78;;;2.66;58.75
62011;BME280;47967;51.756;10.174;2023-02-28T08:35:29;101220.63;;;2.76;57.60
62011;BME280;47967;51.756;10.174;2023-02-28T08:39:33;101217.38;;;2.60;57.80
62011;BME280;47967;51.756;10.174;2023-02-28T08:43:36;101220.28;;;2.56;57.73
62011;BME280;47967;51.756;10.174;2023-02-28T08:47:39;101217.44;;;2.47;57.67
62011;BME280;47967;51.756;10.174;2023-02-28T08:51:43;101222.72;;;2.60;57.06
62011;BME280;47967;51.756;10.174;2023-02-28T08:55:45;101215.31;;;2.76;56.97
62011;BME280;47967;51.756;10.174;2023-02-28T08:59:48;101199.66;;;2.71;55.98
62011;BME280;47967;51.756;10.174;2023-02-28T09:03:51;101213.72;;;2.74;55.72
62011;BME280;47967;51.756;10.174;2023-02-28T09:07:55;101215.97;;;2.91;55.66
62011;BME280;47967;51.756;10.174;2023-02-28T09:11:57;101221.50;;;3.12;54.69
62011;BME280;47967;51.756;10.174;2023-02-28T09:16:02;101212.28;;;3.41;53.79
62011;BME280;47967;51.756;10.174;2023-02-28T09:20:07;101224.59;;;4.00;51.37
62011;BME280;47967;51.756;10.174;2023-02-28T09:24:11;101226.03;;;4.82;50.88
62011;BME280;47967;51.756;10.174;2023-02-28T09:28:16;101223.84;;;5.20;48.34
62011;BME280;47967;51.756;10.174;2023-02-28T09:32:18;101216.56;;;5.64;47.83
62011;BME280;47967;51.756;10.174;2023-02-28T09:36:22;101223.47;;;5.45;46.87
62011;BME280;47967;51.756;10.174;2023-02-28T09:40:39;101215.50;;;5.76;46.58
62011;BME280;47967;51.756;10.174;2023-02-28T09:44:44;101211.25;;;5.74;45.62
62011;BME280;47967;51.756;10.174;2023-02-28T09:48:49;101220.63;;;6.11;45.67
62011;BME280;47967;51.756;10.174;2023-02-28T09:52:54;101214.94;;;6.04;44.91
62011;BME280;47967;51.756;10.174;2023-02-28T09:57:01;101230.75;;;5.86;45.26
62011;BME280;47967;51.756;10.174;2023-02-28T10:01:12;101224.22;;;6.00;43.90
62011;BME280;47967;51.756;10.174;2023-02-28T10:05:23;101227.59;;;5.28;42.21
62011;BME280;47967;51.756;10.174;2023-02-28T10:09:31;101223.16;;;5.39;44.71
62011;BME280;47967;51.756;10.174;2023-02-28T10:13:44;101216.94;;;5.59;43.96
62011;BME280;47967;51.756;10.174;2023-02-28T10:17:49;101219.81;;;5.68;45.24
62011;BME280;47967;51.756;10.174;2023-02-28T10:22:12;101214.63;;;5.76;45.54
62011;BME280;47967;51.756;10.174;2023-02-28T10:26:17;101214.31;;;5.69;45.32
62011;BME280;47967;51.756;10.174;2023-02-28T10:30:21;101212.31;;;5.40;43.24
62011;BME280;47967;51.756;10.174;2023-02-28T10:34:24;101213.25;;;4.97;42.82
62011;BME280;47967;51.756;10.174;2023-02-28T10:38:28;101210.31;;;4.68;43.33
62011;BME280;47967;51.756;10.174;2023-02-28T10:42:34;101201.00;;;5.37;45.34
62011;BME280;47967;51.756;10.174;2023-02-28T10:46:42;101204.72;;;5.67;44.86
62011;BME280;47967;51.756;10.174;2023-02-28T10:50:51;101205.84;;;5.64;43.87
62011;BME280;47967;51.756;10.174;2023-02-28T10:55:14;101205.91;;;5.53;42.92
62011;BME280;47967;51.756;10.174;2023-02-28T10:59:28;101193.78;;;5.80;43.60
62011;BME280;47967;51.756;10.174;2023-02-28T11:03:34;101195.28;;;5.41;42.05
62011;BME280;47967;51.756;10.174;2023-02-28T11:07:37;101197.81;;;5.43;43.28
62011;BME280;47967;51.756;10.174;2023-02-28T11:11:53;101197.28;;;5.07;41.81
62011;BME280;47967;51.756;10.174;2023-02-28T11:15:58;101192.19;;;5.04;42.69
62011;BME280;47967;51.756;10.174;2023-02-28T11:20:05;101196.63;;;5.36;43.64
62011;BME280;47967;51.756;10.174;2023-02-28T11:24:23;101183.13;;;5.58;44.08
62011;BME280;47967;51.756;10.174;2023-02-28T11:28:29;101178.19;;;5.64;43.58
62011;BME280;47967;51.756;10.174;2023-02-28T11:32:32;101178.53;;;5.70;42.68
62011;BME280;47967;51.756;10.174;2023-02-28T11:36:36;101180.25;;;5.50;42.46
62011;BME280;47967;51.756;10.174;2023-02-28T11:40:52;101167.50;;;5.00;41.94
62011;BME280;47967;51.756;10.174;2023-02-28T11:45:09;101170.75;;;5.15;42.13
62011;BME280;47967;51.756;10.174;2023-02-28T11:49:26;101165.47;;;5.25;42.59
62011;BME280;47967;51.756;10.174;2023-02-28T11:53:58;101165.75;;;5.32;42.20
62011;BME280;47967;51.756;10.174;2023-02-28T11:58:20;101158.63;;;5.63;43.81
62011;BME280;47967;51.756;10.174;2023-02-28T12:02:28;101151.56;;;5.93;41.98
62011;BME280;47967;51.756;10.174;2023-02-28T12:06:36;101143.09;;;5.88;42.08
62011;BME280;47967;51.756;10.174;2023-02-28T12:10:57;101145.66;;;5.37;41.88
62011;BME280;47967;51.756;10.174;2023-02-28T12:15:25;101144.47;;;5.51;42.74
62011;BME280;47967;51.756;10.174;2023-02-28T12:19:38;101133.75;;;6.13;43.87
62011;BME280;47967;51.756;10.174;2023-02-28T12:23:52;101137.78;;;6.48;42.47
62011;BME280;47967;51.756;10.174;2023-02-28T12:27:59;101131.28;;;6.41;42.81
62011;BME280;47967;51.756;10.174;2023-02-28T12:32:05;101133.66;;;6.44;42.96
62011;BME280;47967;51.756;10.174;2023-02-28T12:36:11;101127.31;;;6.55;42.91
62011;BME280;47967;51.756;10.174;2023-02-28T12:40:20;101128.69;;;6.30;41.68
62011;BME280;47967;51.756;10.174;2023-02-28T12:44:30;101127.75;;;6.70;43.92
62011;BME280;47967;51.756;10.174;2023-02-28T12:48:38;101116.19;;;6.60;42.22
62011;BME280;47967;51.756;10.174;2023-02-28T12:52:50;101118.69;;;6.22;42.79
62011;BME280;47967;51.756;10.174;2023-02-28T12:57:00;101112.78;;;6.48;42.46
62011;BME280;47967;51.756;10.174;2023-02-28T13:01:33;101115.47;;;6.57;44.68
62011;BME280;47967;51.756;10.174;2023-02-28T13:05:49;101113.66;;;6.78;42.89
62011;BME280;47967;51.756;10.174;2023-02-28T13:09:59;101109.25;;;6.28;41.95
62011;BME280;47967;51.756;10.174;2023-02-28T13:14:04;101116.25;;;6.19;41.70
62011;BME280;47967;51.756;10.174;2023-02-28T13:18:28;101101.66;;;5.92;42.48
62011;BME280;47967;51.756;10.174;2023-02-28T13:22:40;101101.28;;;5.66;42.73
62011;BME280;47967;51.756;10.174;2023-02-28T13:27:19;101097.53;;;6.29;44.67
62011;BME280;47967;51.756;10.174;2023-02-28T13:31:26;101090.91;;;6.33;43.52
62011;BME280;47967;51.756;10.174;2023-02-28T13:35:44;101092.63;;;6.53;43.30
62011;BME280;47967;51.756;10.174;2023-02-28T13:39:49;101085.13;;;6.57;44.33
62011;BME280;47967;51.756;10.174;2023-02-28T13:44:03;101078.06;;;6.56;44.37
62011;BME280;47967;51.756;10.174;2023-02-28T13:48:17;101087.41;;;6.52;42.37
62011;BME280;47967;51.756;10.174;2023-02-28T13:52:24;101083.69;;;6.23;43.02
62011;BME280;47967;51.756;10.174;2023-02-28T13:56:35;101070.19;;;6.25;43.23
62011;BME280;47967;51.756;10.174;2023-02-28T14:05:13;101062.53;;;6.20;44.96
62011;BME280;47967;51.756;10.174;2023-02-28T14:09:23;101064.53;;;6.28;44.78
62011;BME280;47967;51.756;10.174;2023-02-28T14:13:41;101051.28;;;6.36;44.00
62011;BME280;47967;51.756;10.174;2023-02-28T14:17:50;101053.53;;;6.21;43.84
62011;BME280;47967;51.756;10.174;2023-02-28T14:22:02;101062.81;;;6.66;44.71
62011;BME280;47967;51.756;10.174;2023-02-28T14:26:25;101060.59;;;6.62;43.80
62011;BME280;47967;51.756;10.174;2023-02-28T14:30:56;101060.59;;;6.62;43.64
62011;BME280;47967;51.756;10.174;2023-02-28T14:35:13;101063.69;;;6.37;43.27
62011;BME280;47967;51.756;10.174;2023-02-28T14:39:21;101059.47;;;6.54;43.62
62011;BME280;47967;51.756;10.174;2023-02-28T14:43:28;101056.47;;;6.38;43.51
62011;BME280;47967;51.756;10.174;2023-02-28T14:47:32;101059.88;;;6.60;43.86
62011;BME280;47967;51.756;10.174;2023-02-28T14:51:36;101056.63;;;6.66;44.19
62011;BME280;47967;51.756;10.174;2023-02-28T14:55:44;101062.50;;;6.99;44.01
62011;BME280;47967;51.756;10.174;2023-02-28T14:59:57;101060.47;;;7.20;43.58
62011;BME280;47967;51.756;10.174;2023-02-28T15:04:03;101069.03;;;6.67;42.64
62011;BME280;47967;51.756;10.174;2023-02-28T15:08:11;101070.59;;;6.40;43.51
62011;BME280;47967;51.756;10.174;2023-02-28T15:12:15;101065.66;;;6.35;43.67
62011;BME280;47967;51.756;10.174;2023-02-28T15:16:20;101066.63;;;6.44;43.68
62011;BME280;47967;51.756;10.174;2023-02-28T15:20:24;101059.00;;;6.30;43.49
62011;BME280;47967;51.756;10.174;2023-02-28T15:24:34;101062.13;;;6.15;42.86
62011;BME280;47967;51.756;10.174;2023-02-28T15:28:39;101063.69;;;6.37;43.15
62011;BME280;47967;51.756;10.174;2023-02-28T15:32:43;101066.63;;;6.44;43.00
62011;BME280;47967;51.756;10.174;2023-02-28T15:36:46;101067.34;;;6.36;42.98
62011;BME280;47967;51.756;10.174;2023-02-28T15:40:51;101066.78;;;6.52;43.40
62011;BME280;47967;51.756;10.174;2023-02-28T15:44:55;101066.22;;;6.68;43.59
62011;BME280;47967;51.756;10.174;2023-02-28T15:48:59;101056.03;;;6.82;43.47
62011;BME280;47967;51.756;10.174;2023-02-28T15:53:02;101057.88;;;6.91;43.39
62011;BME280;47967;51.756;10.174;2023-02-28T15:57:07;101058.25;;;7.06;43.92
62011;BME280;47967;51.756;10.174;2023-02-28T16:01:23;101056.00;;;6.92;44.01
62011;BME280;47967;51.756;10.174;2023-02-28T16:05:34;101050.97;;;6.59;44.13
62011;BME280;47967;51.756;10.174;2023-02-28T16:09:37;101054.22;;;6.43;44.28
62011;BME280;47967;51.756;10.174;2023-02-28T16:13:39;101060.03;;;6.29;44.43
62011;BME280;47967;51.756;10.174;2023-02-28T16:17:42;101062.94;;;6.06;44.53
62011;BME280;47967;51.756;10.174;2023-02-28T16:21:47;101072.56;;;6.18;44.88
62011;BME280;47967;51.756;10.174;2023-02-28T16:25:50;101071.66;;;5.98;45.17
62011;BME280;47967;51.756;10.174;2023-02-28T16:29:53;101074.06;;;5.29;45.09
62011;BME280;47967;51.756;10.174;2023-02-28T16:33:56;101079.00;;;5.03;46.42
62011;BME280;47967;51.756;10.174;2023-02-28T16:38:00;101078.97;;;4.61;47.21
62011;BME280;47967;51.756;10.174;2023-02-28T16:42:03;101087.66;;;4.42;48.97
62011;BME280;47967;51.756;10.174;2023-02-28T16:46:10;101086.97;;;4.40;49.81
62011;BME280;47967;51.756;10.174;2023-02-28T16:50:15;101087.66;;;4.09;50.03
62011;BME280;47967;51.756;10.174;2023-02-28T16:54:20;101099.84;;;3.79;50.09
62011;BME280;47967;51.756;10.174;2023-02-28T16:58:22;101098.78;;;3.59;50.52
62011;BME280;47967;51.756;10.174;2023-02-28T17:02:26;101118.03;;;3.40;51.02
62011;BME280;47967;51.756;10.174;2023-02-28T17:06:30;101118.78;;;3.31;51.18
62011;BME280;47967;51.756;10.174;2023-02-28T17:10:34;101127.09;;;3.15;52.11
62011;BME280;47967;51.756;10.174;2023-02-28T17:14:38;101123.78;;;3.00;52.19
62011;BME280;47967;51.756;10.174;2023-02-28T17:18:40;101129.44;;;2.84;52.80
62011;BME280;47967;51.756;10.174;2023-02-28T17:22:43;101132.28;;;2.69;53.18
62011;BME280;47967;51.756;10.174;2023-02-28T17:26:47;101137.44;;;2.60;53.72
62011;BME280;47967;51.756;10.174;2023-02-28T17:30:50;101149.66;;;2.51;54.47
62011;BME280;47967;51.756;10.174;2023-02-28T17:34:53;101145.69;;;2.32;54.29
62011;BME280;47967;51.756;10.174;2023-02-28T17:38:55;101145.31;;;2.13;54.64
62011;BME280;47967;51.756;10.174;2023-02-28T17:43:01;101151.53;;;1.87;55.88
62011;BME280;47967;51.756;10.174;2023-02-28T17:47:05;101159.66;;;1.60;57.48
62011;BME280;47967;51.756;10.174;2023-02-28T17:51:09;101161.91;;;1.40;58.40
62011;BME280;47967;51.756;10.174;2023-02-28T17:55:14;101159.00;;;1.31;58.91
62011;BME280;47967;51.756;10.174;2023-02-28T17:59:17;101159.84;;;1.18;59.42
62011;BME280;47967;51.756;10.174;2023-02-28T18:03:20;101161.44;;;1.08;59.61
62011;BME280;47967;51.756;10.174;2023-02-28T18:07:23;101172.97;;;0.94;60.33
62011;BME280;47967;51.756;10.174;2023-02-28T18:11:26;101166.22;;;1.03;60.44
62011;BME280;47967;51.756;10.174;2023-02-28T18:15:44;101169.19;;;0.98;60.83
62011;BME280;47967;51.756;10.174;2023-02-28T18:19:46;101163.19;;;0.82;61.43
62011;BME280;47967;51.756;10.174;2023-02-28T18:23:49;101161.81;;;0.76;61.62
62011;BME280;47967;51.756;10.174;2023-02-28T18:27:53;101159.75;;;0.67;62.17
62011;BME280;47967;51.756;10.174;2023-02-28T18:31:59;101153.88;;;0.34;63.38
62011;BME280;47967;51.756;10.174;2023-02-28T18:36:04;101152.38;;;0.30;63.33
62011;BME280;47967;51.756;10.174;2023-02-28T18:40:09;101155.06;;;0.01;65.06
62011;BME280;47967;51.756;10.174;2023-02-28T18:44:11;101156.44;;;-0.21;66.77
62011;BME280;47967;51.756;10.174;2023-02-28T18:48:22;101157.28;;;-0.35;67.73
62011;BME280;47967;51.756;10.174;2023-02-28T18:52:27;101155.22;;;-0.44;67.83
62011;BME280;47967;51.756;10.174;2023-02-28T18:56:29;101153.91;;;-0.51;68.00
62011;BME280;47967;51.756;10.174;2023-02-28T19:00:33;101157.00;;;-0.59;68.14
62011;BME280;47967;51.756;10.174;2023-02-28T19:04:39;101157.94;;;-0.60;68.29
62011;BME280;47967;51.756;10.174;2023-02-28T19:08:42;101169.81;;;-0.51;67.55
62011;BME280;47967;51.756;10.174;2023-02-28T19:12:45;101154.91;;;-0.39;66.92
62011;BME280;47967;51.756;10.174;2023-02-28T19:16:47;101159.78;;;-0.31;66.44
62011;BME280;47967;51.756;10.174;2023-02-28T19:20:51;101153.91;;;-0.51;66.37
62011;BME280;47967;51.756;10.174;2023-02-28T19:24:54;101153.00;;;-0.81;68.73
62011;BME280;47967;51.756;10.174;2023-02-28T19:28:57;101150.50;;;-0.98;70.58
62011;BME280;47967;51.756;10.174;2023-02-28T19:32:59;101161.66;;;-1.07;71.41
62011;BME280;47967;51.756;10.174;2023-02-28T19:37:03;101160.78;;;-1.08;70.79
62011;BME280;47967;51.756;10.174;2023-02-28T19:41:08;101161.06;;;-1.13;70.39
62011;BME280;47967;51.756;10.174;2023-02-28T19:45:11;101167.13;;;-1.10;70.52
62011;BME280;47967;51.756;10.174;2023-02-28T19:49:15;101171.84;;;-1.16;70.10
62011;BME280;47967;51.756;10.174;2023-02-28T19:53:20;101180.66;;;-1.31;70.35
62011;BME280;47967;51.756;10.174;2023-02-28T19:57:22;101168.91;;;-1.41;70.99
62011;BME280;47967;51.756;10.174;2023-02-28T20:01:25;101170.19;;;-1.49;71.43
62011;BME280;47967;51.756;10.174;2023-02-28T20:05:27;101164.38;;;-1.55;72.44
62011;BME280;47967;51.756;10.174;2023-02-28T20:09:31;101165.84;;;-1.50;72.89
62011;BME280;47967;51.756;10.174;2023-02-28T20:13:34;101174.44;;;-1.46;72.65
62011;BME280;47967;51.756;10.174;2023-02-28T20:17:37;101161.56;;;-1.52;72.48
62011;BME280;47967;51.756;10.174;2023-02-28T20:21:42;101167.81;;;-1.53;71.93
62011;BME280;47967;51.756;10.174;2023-02-28T20:25:46;101169.75;;;-1.57;72.39
62011;BME280;47967;51.756;10.174;2023-02-28T20:29:48;101171.16;;;-1.66;72.06
62011;BME280;47967;51.756;10.174;2023-02-28T20:33:51;101166.00;;;-1.69;72.73
62011;BME280;47967;51.756;10.174;2023-02-28T20:37:54;101165.66;;;-1.79;72.61
62011;BME280;47967;51.756;10.174;2023-02-28T20:41:57;101181.28;;;-1.90;72.46
62011;BME280;47967;51.756;10.174;2023-02-28T20:46:00;101190.41;;;-1.96;72.86
62011;BME280;47967;51.756;10.174;2023-02-28T20:50:04;101197.50;;;-1.96;73.51
62011;BME280;47967;51.756;10.174;2023-02-28T20:54:06;101186.00;;;-1.95;73.25
62011;BME280;47967;51.756;10.174;2023-02-28T20:58:10;101194.06;;;-1.98;73.43
62011;BME280;47967;51.756;10.174;2023-02-28T21:02:15;101197.16;;;-2.06;73.08
62011;BME280;47967;51.756;10.174;2023-02-28T21:06:19;101199.19;;;-2.11;73.80
62011;BME280;47967;51.756;10.174;2023-02-28T21:10:22;101201.19;;;-2.16;74.13
62011;BME280;47967;51.756;10.174;2023-02-28T21:14:26;101191.88;;;-2.23;74.07
62011;BME280;47967;51.756;10.174;2023-02-28T21:18:28;101192.50;;;-2.34;74.02
62011;BME280;47967;51.756;10.174;2023-02-28T21:22:31;101195.28;;;-2.37;74.52
62011;BME280;47967;51.756;10.174;2023-02-28T21:26:33;101188.78;;;-2.48;74.72
62011;BME280;47967;51.756;10.174;2023-02-28T21:30:37;101187.81;;;-2.47;75.22
62011;BME280;47967;51.756;10.174;2023-02-28T21:34:40;101188.09;;;-2.51;75.31
62011;BME280;47967;51.756;10.174;2023-02-28T21:38:44;101190.19;;;-2.58;75.57
62011;BME280;47967;51.756;10.174;2023-02-28T21:42:46;101195.38;;;-2.57;75.44
62011;BME280;47967;51.756;10.174;2023-02-28T21:46:51;101196.63;;;-2.64;74.96
62011;BME280;47967;51.756;10.174;2023-02-28T21:50:56;101187.25;;;-2.69;75.61
62011;BME280;47967;51.756;10.174;2023-02-28T21:54:59;101192.91;;;-2.77;75.39
62011;BME280;47967;51.756;10.174;2023-02-28T21:59:02;101187.41;;;-2.90;76.07
